Time;durP1;ratioP1;P1;durP2;ratioP2;P2;SDS_P1;SDS_P2;PMS_P1;PMS_P2;Temp;Humidity;BMP_temperature;BMP_pressure;BME280_temperature;BME280_humidity;BME280_pressure;Samples;Min_cycle;Max_cycle;Signal;HPM_P1;HPM_P2
2023/01/27 00:02:07;;;;;;;478.93;230.60;;;;;;;;;;4993977;28;20386;-51
2023/01/27 00:04:33;;;;;;;443.50;206.87;;;;;;;;;;5008669;28;20249;-51
2023/01/27 00:06:59;;;;;;;477.60;231.07;;;;;;;;;;5018672;28;20218;-51
2023/01/27 00:09:25;;;;;;;481.83;232.23;;;;;;;;;;5000255;28;20580;-51
2023/01/27 00:14:36;;;;;;;483.77;228.27;;;;;;;;;;4984530;28;20666;-51
2023/01/27 00:17:05;;;;;;;466.03;221.23;;;;;;;;;;4992826;28;20179;-51
2023/01/27 00:19:31;;;;;;;459.17;228.47;;;;;;;;;;4984771;28;20226;-51
2023/01/27 00:24:42;;;;;;;493.87;245.57;;;;;;;;;;4979094;28;20320;-51
2023/01/27 00:27:09;;;;;;;501.23;249.37;;;;;;;;;;4960624;28;20276;-51
2023/01/27 00:29:35;;;;;;;482.37;234.70;;;;;;;;;;4962692;28;20605;-51
2023/01/27 00:34:46;;;;;;;466.87;225.93;;;;;;;;;;4963874;28;20282;-51
2023/01/27 00:37:13;;;;;;;547.93;279.23;;;;;;;;;;4982757;28;20246;-51
2023/01/27 00:39:39;;;;;;;484.80;235.50;;;;;;;;;;4954878;28;20226;-51
2023/01/27 00:42:06;;;;;;;517.47;256.50;;;;;;;;;;4965564;28;20232;-53
2023/01/27 00:44:32;;;;;;;471.20;228.00;;;;;;;;;;4975787;28;20501;-51
2023/01/27 00:46:58;;;;;;;506.37;253.17;;;;;;;;;;4974044;28;20429;-51
2023/01/27 00:49:24;;;;;;;475.83;227.47;;;;;;;;;;4964135;28;20595;-50
2023/01/27 00:51:50;;;;;;;484.73;237.90;;;;;;;;;;4965247;28;20491;-53
2023/01/27 00:54:17;;;;;;;484.90;238.97;;;;;;;;;;4969393;28;20304;-51
2023/01/27 00:56:48;;;;;;;494.10;249.83;;;;;;;;;;4963850;28;20210;-51
2023/01/27 00:59:14;;;;;;;500.80;249.30;;;;;;;;;;4982030;22;20194;-49
2023/01/27 01:01:40;;;;;;;495.60;251.10;;;;;;;;;;4991279;28;20270;-50
2023/01/27 01:04:06;;;;;;;558.37;288.27;;;;;;;;;;4966926;28;20233;-49
2023/01/27 01:06:32;;;;;;;460.33;237.83;;;;;;;;;;4979774;28;20239;-48
2023/01/27 01:08:58;;;;;;;518.30;267.63;;;;;;;;;;4979149;28;20618;-49
2023/01/27 01:11:25;;;;;;;453.03;224.50;;;;;;;;;;4996146;28;21447;-49
2023/01/27 01:13:51;;;;;;;426.83;211.47;;;;;;;;;;5029651;28;20466;-49
2023/01/27 01:16:19;;;;;;;473.47;238.33;;;;;;;;;;5047283;28;20560;-50
2023/01/27 01:18:46;;;;;;;442.80;230.73;;;;;;;;;;4985747;28;20213;-49
2023/01/27 01:21:12;;;;;;;511.90;273.87;;;;;;;;;;4998508;28;21400;-52
2023/01/27 01:23:40;;;;;;;493.33;254.47;;;;;;;;;;4975731;28;20985;-50
2023/01/27 01:26:06;;;;;;;479.43;243.67;;;;;;;;;;4979613;28;22340;-50
2023/01/27 01:28:32;;;;;;;434.57;217.40;;;;;;;;;;4989646;28;20229;-49
2023/01/27 01:31:27;;;;;;;529.03;270.40;;;;;;;;;;4971648;28;20913;-49
2023/01/27 01:33:54;;;;;;;487.00;252.23;;;;;;;;;;4953150;28;20235;-49
2023/01/27 01:36:20;;;;;;;484.73;251.93;;;;;;;;;;4980862;28;20217;-50
2023/01/27 01:38:47;;;;;;;452.43;229.30;;;;;;;;;;4997917;28;20749;-49
2023/01/27 01:41:20;;;;;;;555.10;287.87;;;;;;;;;;4986238;28;20213;-51
2023/01/27 01:43:46;;;;;;;483.50;247.80;;;;;;;;;;4978702;28;20257;-49
2023/01/27 01:46:12;;;;;;;520.93;267.47;;;;;;;;;;4990134;28;20225;-49
2023/01/27 01:48:47;;;;;;;467.50;236.30;;;;;;;;;;4978993;28;21320;-50
2023/01/27 01:51:39;;;;;;;483.40;258.40;;;;;;;;;;4975822;28;20260;-49
2023/01/27 01:54:11;;;;;;;533.23;275.53;;;;;;;;;;5006242;28;20634;-50
2023/01/27 01:56:49;;;;;;;439.13;223.03;;;;;;;;;;4954753;28;20618;-49
2023/01/27 01:59:36;;;;;;;446.13;226.03;;;;;;;;;;4953216;28;20201;-50
2023/01/27 02:02:04;;;;;;;495.90;264.13;;;;;;;;;;4950799;28;20401;-49
2023/01/27 02:04:33;;;;;;;506.27;254.80;;;;;;;;;;4957386;28;20232;-50
2023/01/27 02:07:07;;;;;;;480.20;242.97;;;;;;;;;;4954101;28;20274;-49
2023/01/27 02:09:33;;;;;;;471.97;238.43;;;;;;;;;;4963312;28;20564;-51
2023/01/27 02:12:00;;;;;;;432.80;217.03;;;;;;;;;;4972863;28;20243;-52
2023/01/27 02:14:26;;;;;;;440.00;224.13;;;;;;;;;;4975839;28;20425;-51
2023/01/27 02:16:52;;;;;;;486.73;248.53;;;;;;;;;;5012541;28;20220;-49
2023/01/27 02:19:25;;;;;;;461.27;237.73;;;;;;;;;;5048413;28;20718;-49
2023/01/27 02:21:52;;;;;;;502.63;262.27;;;;;;;;;;5029160;28;20221;-49
2023/01/27 02:24:19;;;;;;;450.83;223.77;;;;;;;;;;5009094;28;20399;-49
2023/01/27 02:26:46;;;;;;;514.63;264.87;;;;;;;;;;5007560;28;21690;-49
2023/01/27 02:29:14;;;;;;;548.43;287.60;;;;;;;;;;4984504;28;20281;-49
2023/01/27 02:31:40;;;;;;;551.83;288.47;;;;;;;;;;4971106;28;20321;-49
2023/01/27 02:34:14;;;;;;;444.00;221.30;;;;;;;;;;5006029;28;20237;-49
2023/01/27 02:36:49;;;;;;;488.70;251.93;;;;;;;;;;5038879;28;20516;-51
2023/01/27 02:39:17;;;;;;;482.40;247.83;;;;;;;;;;4991383;28;20476;-49
2023/01/27 02:41:44;;;;;;;543.23;275.63;;;;;;;;;;4984457;28;20535;-49
2023/01/27 02:44:11;;;;;;;516.97;267.97;;;;;;;;;;4968753;28;20224;-49
2023/01/27 02:46:37;;;;;;;498.07;257.17;;;;;;;;;;4978738;28;20353;-49
2023/01/27 02:49:04;;;;;;;479.70;245.87;;;;;;;;;;4964743;28;20214;-49
2023/01/27 02:51:30;;;;;;;462.83;239.63;;;;;;;;;;4997529;28;20268;-49
2023/01/27 02:53:56;;;;;;;518.20;267.07;;;;;;;;;;4977624;28;20236;-50
2023/01/27 02:56:22;;;;;;;520.47;268.50;;;;;;;;;;4993441;28;20410;-49
2023/01/27 02:58:49;;;;;;;523.90;269.47;;;;;;;;;;4983355;28;20226;-49
2023/01/27 03:01:15;;;;;;;478.47;245.93;;;;;;;;;;4973923;28;20217;-49
2023/01/27 03:03:45;;;;;;;553.13;285.60;;;;;;;;;;4974417;28;20214;-49
2023/01/27 03:06:12;;;;;;;523.67;259.37;;;;;;;;;;4994790;28;20648;-49
2023/01/27 03:08:38;;;;;;;532.90;272.37;;;;;;;;;;5001942;28;20268;-49
2023/01/27 03:11:04;;;;;;;439.97;218.77;;;;;;;;;;5008016;28;20224;-49
2023/01/27 03:13:30;;;;;;;465.00;235.47;;;;;;;;;;5007984;28;20225;-49
2023/01/27 03:18:46;;;;;;;509.17;258.53;;;;;;;;;;4986446;28;20220;-49
2023/01/27 03:21:13;;;;;;;460.63;241.17;;;;;;;;;;5022673;28;20396;-49
2023/01/27 03:23:39;;;;;;;496.00;259.47;;;;;;;;;;5009008;28;20776;-49
2023/01/27 03:26:06;;;;;;;452.77;230.87;;;;;;;;;;4976492;28;20175;-50
2023/01/27 03:28:32;;;;;;;467.03;231.10;;;;;;;;;;5001780;28;20222;-49
2023/01/27 03:31:03;;;;;;;525.10;269.03;;;;;;;;;;4985221;28;20226;-49
2023/01/27 03:33:29;;;;;;;501.37;253.33;;;;;;;;;;4974162;28;20261;-48
2023/01/27 03:46:55;;;;;;;468.17;241.20;;;;;;;;;;4984491;28;20356;-50
2023/01/27 03:49:21;;;;;;;481.17;254.53;;;;;;;;;;4978086;28;20218;-51
2023/01/27 03:51:47;;;;;;;487.53;251.77;;;;;;;;;;4981119;28;20248;-50
2023/01/27 03:54:13;;;;;;;529.80;278.93;;;;;;;;;;4981143;28;20306;-50
2023/01/27 03:56:40;;;;;;;507.47;256.97;;;;;;;;;;4973284;28;20198;-51
2023/01/27 03:59:06;;;;;;;444.17;227.43;;;;;;;;;;4974689;28;20182;-50
2023/01/27 04:01:32;;;;;;;504.23;268.67;;;;;;;;;;4996405;28;20273;-51
2023/01/27 04:06:59;;;;;;;486.47;241.73;;;;;;;;;;4975143;28;20742;-50
2023/01/27 04:09:36;;;;;;;477.17;243.80;;;;;;;;;;4985310;28;20308;-50
2023/01/27 04:12:04;;;;;;;526.40;265.07;;;;;;;;;;4984315;28;20455;-50
2023/01/27 04:14:31;;;;;;;481.60;251.00;;;;;;;;;;4997366;28;20196;-50
2023/01/27 04:16:58;;;;;;;545.07;284.27;;;;;;;;;;5004827;28;20181;-50
2023/01/27 04:19:25;;;;;;;456.43;230.30;;;;;;;;;;5018430;28;20232;-50
2023/01/27 04:21:50;;;;;;;485.80;245.33;;;;;;;;;;5020440;28;20202;-50
2023/01/27 04:24:23;;;;;;;459.27;232.77;;;;;;;;;;5028918;28;20244;-50
2023/01/27 04:26:58;;;;;;;504.07;253.77;;;;;;;;;;5027419;28;20245;-50
2023/01/27 04:29:26;;;;;;;471.70;241.40;;;;;;;;;;4996779;28;20246;-50
2023/01/27 04:31:52;;;;;;;558.30;278.73;;;;;;;;;;4987643;28;20716;-50
2023/01/27 04:34:18;;;;;;;464.53;234.93;;;;;;;;;;4983200;28;20711;-50
2023/01/27 04:36:46;;;;;;;517.33;262.17;;;;;;;;;;4964643;28;20226;-50
2023/01/27 04:39:12;;;;;;;560.23;285.37;;;;;;;;;;4987276;28;20294;-50
2023/01/27 04:41:38;;;;;;;541.20;272.50;;;;;;;;;;4981197;28;20259;-50
2023/01/27 04:44:04;;;;;;;457.97;230.30;;;;;;;;;;4993710;28;20224;-50
2023/01/27 04:46:31;;;;;;;470.13;238.60;;;;;;;;;;4963373;28;20264;-50
2023/01/27 04:48:57;;;;;;;593.80;311.57;;;;;;;;;;4968631;28;20871;-50
2023/01/27 04:51:23;;;;;;;488.20;246.67;;;;;;;;;;4978805;28;20720;-50
2023/01/27 04:53:50;;;;;;;554.63;279.77;;;;;;;;;;4973599;28;20229;-50
2023/01/27 04:56:19;;;;;;;454.33;230.23;;;;;;;;;;4978177;28;20415;-50
2023/01/27 04:58:45;;;;;;;456.00;229.93;;;;;;;;;;4986226;28;20663;-50
2023/01/27 05:01:11;;;;;;;453.50;233.23;;;;;;;;;;4979106;28;20536;-50
2023/01/27 05:03:38;;;;;;;525.03;278.57;;;;;;;;;;4977765;28;20296;-49
2023/01/27 05:06:04;;;;;;;515.50;267.03;;;;;;;;;;4986242;28;20225;-49
2023/01/27 05:08:30;;;;;;;449.60;223.17;;;;;;;;;;4977525;28;20730;-49
2023/01/27 05:10:57;;;;;;;525.73;274.47;;;;;;;;;;4982282;28;20210;-49
2023/01/27 05:13:23;;;;;;;501.63;259.10;;;;;;;;;;4981032;28;20291;-48
2023/01/27 05:15:49;;;;;;;495.87;256.57;;;;;;;;;;5000552;28;20222;-50
2023/01/27 05:18:15;;;;;;;432.80;214.00;;;;;;;;;;4976788;28;20220;-50
2023/01/27 05:20:42;;;;;;;444.60;227.23;;;;;;;;;;4991235;28;20198;-50
2023/01/27 05:25:53;;;;;;;557.27;291.20;;;;;;;;;;4976900;28;21170;-50
2023/01/27 05:28:19;;;;;;;466.13;239.73;;;;;;;;;;5034754;28;20225;-50
2023/01/27 05:30:45;;;;;;;542.97;280.50;;;;;;;;;;4988423;28;20216;-50
2023/01/27 05:33:11;;;;;;;522.67;265.10;;;;;;;;;;4973873;28;20678;-50
2023/01/27 05:35:37;;;;;;;463.03;235.07;;;;;;;;;;4975246;28;20586;-50
2023/01/27 05:38:03;;;;;;;488.27;250.13;;;;;;;;;;4974098;28;20206;-50
2023/01/27 05:40:29;;;;;;;462.47;238.60;;;;;;;;;;4979210;28;20256;-50
2023/01/27 05:42:55;;;;;;;526.57;271.80;;;;;;;;;;4981314;28;20243;-50
2023/01/27 05:45:21;;;;;;;528.27;276.27;;;;;;;;;;4973321;28;20717;-50
2023/01/27 05:47:49;;;;;;;491.17;253.57;;;;;;;;;;4979114;28;20658;-50
2023/01/27 05:50:15;;;;;;;493.07;252.77;;;;;;;;;;4976177;28;20244;-50
2023/01/27 05:52:42;;;;;;;453.97;223.17;;;;;;;;;;4987908;28;20239;-50
2023/01/27 05:55:08;;;;;;;497.30;255.57;;;;;;;;;;5008232;28;20693;-50
2023/01/27 05:57:34;;;;;;;461.90;236.23;;;;;;;;;;5039525;28;20214;-50
2023/01/27 06:00:00;;;;;;;504.57;264.13;;;;;;;;;;5016645;28;20312;-50
2023/01/27 06:02:26;;;;;;;471.60;243.33;;;;;;;;;;5027051;28;20642;-49
2023/01/27 06:04:52;;;;;;;483.07;257.47;;;;;;;;;;5040631;28;20585;-49
2023/01/27 06:07:19;;;;;;;482.47;253.30;;;;;;;;;;5004855;28;20607;-49
2023/01/27 06:09:45;;;;;;;516.83;268.07;;;;;;;;;;4988773;28;20438;-49
2023/01/27 06:12:11;;;;;;;511.83;273.87;;;;;;;;;;4979470;28;20229;-49
2023/01/27 06:14:37;;;;;;;531.70;275.03;;;;;;;;;;4985400;28;20374;-49
2023/01/27 06:17:03;;;;;;;455.73;236.63;;;;;;;;;;4977461;28;20259;-49
2023/01/27 06:19:29;;;;;;;467.20;241.77;;;;;;;;;;4970753;28;20271;-50
2023/01/27 06:21:55;;;;;;;495.03;257.43;;;;;;;;;;4982604;28;20248;-50
2023/01/27 06:24:22;;;;;;;501.03;265.40;;;;;;;;;;4933251;28;20273;-50
2023/01/27 06:26:49;;;;;;;546.10;291.10;;;;;;;;;;4974600;28;20266;-50
2023/01/27 06:29:15;;;;;;;555.37;287.43;;;;;;;;;;5011102;28;20210;-50
2023/01/27 06:31:41;;;;;;;510.97;266.30;;;;;;;;;;4993679;28;20329;-50
2023/01/27 06:34:08;;;;;;;513.17;264.60;;;;;;;;;;4999887;28;20228;-50
2023/01/27 06:36:35;;;;;;;643.47;343.13;;;;;;;;;;4987053;28;20209;-50
2023/01/27 06:39:02;;;;;;;674.33;357.40;;;;;;;;;;4974988;28;20337;-50
2023/01/27 06:41:28;;;;;;;572.33;292.10;;;;;;;;;;4970633;28;20173;-50
2023/01/27 06:43:55;;;;;;;612.43;321.03;;;;;;;;;;4982285;28;20190;-50
2023/01/27 06:46:21;;;;;;;627.57;329.27;;;;;;;;;;4979422;28;20232;-50
2023/01/27 06:48:47;;;;;;;714.73;395.13;;;;;;;;;;4951471;28;20376;-50
2023/01/27 06:51:13;;;;;;;572.60;295.60;;;;;;;;;;4998649;28;20236;-50
2023/01/27 06:53:39;;;;;;;553.90;282.80;;;;;;;;;;5016831;28;20641;-49
2023/01/27 06:56:05;;;;;;;577.17;306.93;;;;;;;;;;5009138;28;20201;-49
2023/01/27 06:58:32;;;;;;;600.40;314.23;;;;;;;;;;4997043;28;20311;-49
2023/01/27 07:00:58;;;;;;;507.60;234.23;;;;;;;;;;4961347;22;20266;-52
2023/01/27 07:03:25;;;;;;;512.50;244.87;;;;;;;;;;4933436;28;20218;-51
2023/01/27 07:05:52;;;;;;;507.70;237.17;;;;;;;;;;4923617;28;20226;-53
2023/01/27 07:08:18;;;;;;;515.93;251.03;;;;;;;;;;4932326;28;20211;-52
2023/01/27 07:10:44;;;;;;;489.40;232.93;;;;;;;;;;4937533;28;20296;-53
2023/01/27 07:13:11;;;;;;;574.67;290.60;;;;;;;;;;4908560;28;20283;-52
2023/01/27 07:15:38;;;;;;;479.10;229.30;;;;;;;;;;4918304;28;20214;-52
2023/01/27 07:18:04;;;;;;;576.90;293.40;;;;;;;;;;4898499;28;20228;-52
2023/01/27 07:20:31;;;;;;;564.03;286.07;;;;;;;;;;4891239;28;20290;-52
2023/01/27 07:23:01;;;;;;;630.87;335.00;;;;;;;;;;4896222;28;20762;-52
2023/01/27 07:25:28;;;;;;;631.37;307.33;;;;;;;;;;4913675;28;20314;-52
2023/01/27 07:27:56;;;;;;;638.60;329.37;;;;;;;;;;4916809;28;20237;-52
2023/01/27 07:30:22;;;;;;;594.73;294.93;;;;;;;;;;4917653;28;20222;-53
2023/01/27 07:32:49;;;;;;;579.33;283.73;;;;;;;;;;4917888;28;20218;-51
2023/01/27 07:35:16;;;;;;;548.93;269.37;;;;;;;;;;4939912;28;20245;-51
2023/01/27 07:37:42;;;;;;;552.47;271.93;;;;;;;;;;4920177;28;20248;-52
2023/01/27 07:40:08;;;;;;;595.80;303.27;;;;;;;;;;4919200;28;20778;-51
2023/01/27 07:42:35;;;;;;;548.70;276.43;;;;;;;;;;4914669;28;20225;-52
2023/01/27 07:45:01;;;;;;;570.33;285.37;;;;;;;;;;4921468;28;20223;-51
2023/01/27 07:47:27;;;;;;;484.33;223.40;;;;;;;;;;4914620;28;20452;-52
2023/01/27 07:49:53;;;;;;;474.20;226.63;;;;;;;;;;4928494;28;21542;-52
2023/01/27 07:52:19;;;;;;;536.47;262.90;;;;;;;;;;4914007;28;20270;-53
2023/01/27 07:54:45;;;;;;;518.30;243.90;;;;;;;;;;4925098;28;20256;-52
2023/01/27 07:57:11;;;;;;;527.17;251.93;;;;;;;;;;4929946;28;20218;-52
2023/01/27 07:59:37;;;;;;;526.23;246.67;;;;;;;;;;4928210;28;20714;-51
2023/01/27 08:02:03;;;;;;;522.03;247.60;;;;;;;;;;4947600;28;20194;-51
2023/01/27 08:04:29;;;;;;;533.53;243.50;;;;;;;;;;4946614;28;20226;-52
2023/01/27 08:06:55;;;;;;;511.70;242.10;;;;;;;;;;4948353;28;20221;-52
2023/01/27 08:09:21;;;;;;;512.73;231.83;;;;;;;;;;4948054;28;20975;-52
2023/01/27 08:11:47;;;;;;;541.10;258.50;;;;;;;;;;4944132;28;21797;-52
2023/01/27 08:14:13;;;;;;;488.27;232.70;;;;;;;;;;4946017;28;20331;-52
2023/01/27 08:16:39;;;;;;;506.83;238.57;;;;;;;;;;4947101;28;20248;-52
2023/01/27 08:19:05;;;;;;;541.10;259.70;;;;;;;;;;4937659;28;20345;-53
2023/01/27 08:21:31;;;;;;;511.87;244.00;;;;;;;;;;4949194;28;20296;-52
2023/01/27 08:23:58;;;;;;;527.03;250.53;;;;;;;;;;4947627;28;20226;-52
2023/01/27 08:26:25;;;;;;;518.40;246.23;;;;;;;;;;4951062;28;20187;-52
2023/01/27 08:28:51;;;;;;;525.80;247.27;;;;;;;;;;4949210;28;20723;-52
2023/01/27 08:31:18;;;;;;;580.33;281.63;;;;;;;;;;4926021;28;20210;-52
2023/01/27 08:33:44;;;;;;;540.90;252.40;;;;;;;;;;4926500;28;20219;-52
2023/01/27 08:36:12;;;;;;;584.23;284.83;;;;;;;;;;4926235;28;20228;-52
2023/01/27 08:38:39;;;;;;;529.93;253.80;;;;;;;;;;4923132;28;20247;-51
2023/01/27 08:41:06;;;;;;;532.10;246.47;;;;;;;;;;4925142;28;20203;-52
2023/01/27 08:43:32;;;;;;;580.60;283.50;;;;;;;;;;4923770;28;20222;-52
2023/01/27 08:45:59;;;;;;;514.53;242.07;;;;;;;;;;4926626;28;20831;-52
2023/01/27 08:48:26;;;;;;;602.00;309.27;;;;;;;;;;4920038;28;21234;-51
2023/01/27 08:50:52;;;;;;;497.47;235.63;;;;;;;;;;4930469;28;20372;-52
2023/01/27 08:53:20;;;;;;;594.17;290.67;;;;;;;;;;4923795;28;20193;-52
2023/01/27 08:55:46;;;;;;;547.30;259.10;;;;;;;;;;4924667;28;20928;-51
2023/01/27 08:58:12;;;;;;;526.37;252.43;;;;;;;;;;4932936;28;20222;-52
2023/01/27 09:00:39;;;;;;;551.90;266.80;;;;;;;;;;4923052;28;20600;-54
2023/01/27 09:03:05;;;;;;;498.93;225.70;;;;;;;;;;4930550;28;20233;-52
2023/01/27 09:05:31;;;;;;;561.73;264.23;;;;;;;;;;4936766;28;20541;-53
2023/01/27 09:07:57;;;;;;;546.40;263.13;;;;;;;;;;4938191;28;20314;-54
2023/01/27 09:10:23;;;;;;;538.60;259.73;;;;;;;;;;4934530;28;20799;-53
2023/01/27 09:12:49;;;;;;;554.80;265.77;;;;;;;;;;4941293;28;20682;-54
2023/01/27 09:15:15;;;;;;;522.43;246.57;;;;;;;;;;4934466;28;20222;-52
2023/01/27 09:17:41;;;;;;;588.87;278.67;;;;;;;;;;4927918;28;20852;-54
2023/01/27 09:20:08;;;;;;;565.00;270.50;;;;;;;;;;4938068;28;20250;-54
2023/01/27 09:22:35;;;;;;;539.17;263.73;;;;;;;;;;4935413;28;20257;-54
2023/01/27 09:25:02;;;;;;;493.47;232.30;;;;;;;;;;4936366;28;20495;-53
2023/01/27 09:27:28;;;;;;;517.23;239.87;;;;;;;;;;4946298;28;20230;-51
2023/01/27 09:29:54;;;;;;;546.77;264.83;;;;;;;;;;4933899;28;20236;-52
2023/01/27 09:32:20;;;;;;;561.23;268.60;;;;;;;;;;4930758;28;20183;-52
2023/01/27 09:34:46;;;;;;;499.90;234.57;;;;;;;;;;4925077;28;20264;-52
2023/01/27 09:37:13;;;;;;;526.57;262.10;;;;;;;;;;4930151;28;20218;-51
2023/01/27 09:39:47;;;;;;;506.70;240.97;;;;;;;;;;4930280;28;20418;-52
2023/01/27 09:42:13;;;;;;;512.93;241.27;;;;;;;;;;4942527;28;20209;-53
2023/01/27 09:44:53;;;;;;;562.83;270.63;;;;;;;;;;4945739;28;20197;-51
2023/01/27 09:47:22;;;;;;;558.10;258.23;;;;;;;;;;4928303;28;23546;-53
2023/01/27 09:50:07;;;;;;;559.40;274.40;;;;;;;;;;4927057;28;20671;-52
2023/01/27 09:52:52;;;;;;;539.67;255.57;;;;;;;;;;4936052;28;20222;-53
2023/01/27 09:55:27;;;;;;;596.63;300.87;;;;;;;;;;4923487;28;20222;-52
2023/01/27 09:57:57;;;;;;;629.83;319.87;;;;;;;;;;4902463;28;20931;-52
2023/01/27 10:00:25;;;;;;;587.43;291.47;;;;;;;;;;4910198;28;20723;-53
2023/01/27 10:03:04;;;;;;;531.13;256.23;;;;;;;;;;4931626;28;20222;-51
2023/01/27 10:05:33;;;;;;;573.17;277.57;;;;;;;;;;4919162;28;20190;-53
2023/01/27 10:08:06;;;;;;;586.63;287.50;;;;;;;;;;4905848;28;20313;-52
2023/01/27 10:11:02;;;;;;;538.43;270.73;;;;;;;;;;4927983;28;20254;-53
2023/01/27 10:13:36;;;;;;;535.63;257.93;;;;;;;;;;4958631;28;20301;-52
2023/01/27 10:16:07;;;;;;;482.93;233.73;;;;;;;;;;4948401;28;20276;-53
2023/01/27 10:18:48;;;;;;;571.07;284.30;;;;;;;;;;4932842;28;20225;-52
2023/01/27 10:21:20;;;;;;;561.77;271.40;;;;;;;;;;4935959;28;20227;-52
2023/01/27 10:23:46;;;;;;;532.47;244.03;;;;;;;;;;4935339;28;20231;-52
2023/01/27 10:26:24;;;;;;;551.47;257.87;;;;;;;;;;4925714;28;20222;-54
2023/01/27 10:28:51;;;;;;;541.60;249.30;;;;;;;;;;4938576;28;20406;-52
2023/01/27 10:31:25;;;;;;;566.60;279.97;;;;;;;;;;4933838;28;20576;-52
2023/01/27 10:33:55;;;;;;;521.87;257.07;;;;;;;;;;4934035;28;20293;-54
2023/01/27 10:36:28;;;;;;;566.17;275.73;;;;;;;;;;4936053;28;20219;-52
2023/01/27 10:39:10;;;;;;;548.17;262.63;;;;;;;;;;4928899;28;20403;-52
2023/01/27 10:41:40;;;;;;;517.63;251.70;;;;;;;;;;4931924;28;20436;-54
2023/01/27 10:44:17;;;;;;;570.97;282.03;;;;;;;;;;4930642;28;20284;-52
2023/01/27 10:46:59;;;;;;;531.13;265.53;;;;;;;;;;4921166;28;20602;-54
2023/01/27 10:49:27;;;;;;;532.60;249.17;;;;;;;;;;4944479;28;20669;-54
2023/01/27 10:52:12;;;;;;;553.47;269.50;;;;;;;;;;4931994;28;20257;-55
2023/01/27 10:54:46;;;;;;;515.43;245.93;;;;;;;;;;4930487;28;20217;-55
2023/01/27 10:57:51;;;;;;;528.03;242.60;;;;;;;;;;4936429;28;20214;-54
2023/01/27 11:00:31;;;;;;;560.60;268.60;;;;;;;;;;4997639;28;20220;-54
2023/01/27 11:03:04;;;;;;;517.77;251.67;;;;;;;;;;4978005;28;20216;-54
2023/01/27 11:05:34;;;;;;;592.87;293.53;;;;;;;;;;4944308;28;20471;-54
2023/01/27 11:08:03;;;;;;;548.00;265.37;;;;;;;;;;4923410;28;20721;-53
2023/01/27 11:10:34;;;;;;;549.33;258.87;;;;;;;;;;4927478;28;20301;-54
2023/01/27 11:13:02;;;;;;;558.07;272.40;;;;;;;;;;4919604;28;20446;-54
2023/01/27 11:15:32;;;;;;;559.43;272.80;;;;;;;;;;4926798;28;21029;-54
2023/01/27 11:18:11;;;;;;;567.53;265.00;;;;;;;;;;4921967;28;20371;-50
2023/01/27 11:20:40;;;;;;;606.47;301.97;;;;;;;;;;4922596;28;20202;-51
2023/01/27 11:23:09;;;;;;;613.30;296.07;;;;;;;;;;4916505;28;20190;-51
2023/01/27 11:25:35;;;;;;;577.40;277.00;;;;;;;;;;4917728;28;20215;-52
2023/01/27 11:28:19;;;;;;;531.13;250.47;;;;;;;;;;4928352;28;20226;-53
2023/01/27 11:30:53;;;;;;;564.40;271.97;;;;;;;;;;4931726;28;20252;-52
2023/01/27 11:33:33;;;;;;;575.90;271.60;;;;;;;;;;4931801;28;20222;-52
2023/01/27 11:35:59;;;;;;;578.83;275.97;;;;;;;;;;4925191;28;20226;-52
2023/01/27 11:38:25;;;;;;;604.50;299.33;;;;;;;;;;4917059;28;20187;-52
2023/01/27 11:40:52;;;;;;;589.13;287.17;;;;;;;;;;4930494;28;20623;-53
2023/01/27 11:43:19;;;;;;;584.40;276.60;;;;;;;;;;4937094;28;20505;-50
2023/01/27 11:45:46;;;;;;;576.53;268.47;;;;;;;;;;4932756;28;20603;-50
2023/01/27 11:48:14;;;;;;;605.40;287.00;;;;;;;;;;4934288;28;20616;-51
2023/01/27 11:50:41;;;;;;;569.93;271.80;;;;;;;;;;4927502;28;20212;-51
2023/01/27 11:53:17;;;;;;;586.10;281.53;;;;;;;;;;4923606;28;20217;-51
2023/01/27 11:55:48;;;;;;;542.10;267.77;;;;;;;;;;4936750;28;20327;-52
2023/01/27 11:58:24;;;;;;;555.73;252.37;;;;;;;;;;4936632;28;20296;-51
2023/01/27 12:00:58;;;;;;;561.73;259.03;;;;;;;;;;4937517;28;21817;-51
2023/01/27 12:03:31;;;;;;;553.80;269.60;;;;;;;;;;4942451;28;20252;-51
2023/01/27 12:06:03;;;;;;;563.63;266.13;;;;;;;;;;4935013;28;20752;-51
2023/01/27 12:08:36;;;;;;;537.03;258.87;;;;;;;;;;4922075;28;20600;-51
2023/01/27 12:11:21;;;;;;;546.47;254.67;;;;;;;;;;4937436;28;20203;-51
2023/01/27 12:14:07;;;;;;;556.23;263.43;;;;;;;;;;4923060;28;20241;-51
2023/01/27 12:16:39;;;;;;;556.83;259.83;;;;;;;;;;4930540;28;20681;-51
2023/01/27 12:19:14;;;;;;;537.80;249.17;;;;;;;;;;4935550;28;20306;-51
2023/01/27 12:22:14;;;;;;;542.77;251.87;;;;;;;;;;4928797;28;20345;-51
2023/01/27 12:24:46;;;;;;;520.07;249.03;;;;;;;;;;4936745;28;20685;-51
2023/01/27 12:27:23;;;;;;;523.63;248.03;;;;;;;;;;4936783;28;20693;-51
2023/01/27 12:30:03;;;;;;;533.67;266.20;;;;;;;;;;4937164;28;20226;-51
2023/01/27 12:32:40;;;;;;;535.13;263.30;;;;;;;;;;4934468;28;20191;-51
2023/01/27 12:35:06;;;;;;;543.97;259.67;;;;;;;;;;4942011;28;20447;-51
2023/01/27 12:37:35;;;;;;;504.70;232.63;;;;;;;;;;4926877;28;20218;-51
2023/01/27 12:40:06;;;;;;;519.33;260.50;;;;;;;;;;4926146;28;20218;-50
2023/01/27 12:42:43;;;;;;;497.20;231.57;;;;;;;;;;4944612;28;20218;-50
2023/01/27 12:45:18;;;;;;;576.83;272.33;;;;;;;;;;4932726;28;20226;-51
2023/01/27 12:47:56;;;;;;;536.90;262.37;;;;;;;;;;4938914;28;20264;-50
2023/01/27 12:50:25;;;;;;;492.50;240.20;;;;;;;;;;4930372;28;20229;-51
2023/01/27 12:53:06;;;;;;;387.80;191.43;;;;;;;;;;4942772;28;20593;-51
2023/01/27 12:55:39;;;;;;;413.63;206.53;;;;;;;;;;4940973;28;20222;-51
2023/01/27 12:58:05;;;;;;;385.77;191.57;;;;;;;;;;4947199;28;20223;-48
2023/01/27 13:00:32;;;;;;;492.70;250.97;;;;;;;;;;4976060;22;20273;-48
2023/01/27 13:03:03;;;;;;;415.47;221.20;;;;;;;;;;4932926;28;20235;-47
2023/01/27 13:05:34;;;;;;;473.73;255.27;;;;;;;;;;4940008;28;21663;-46
2023/01/27 13:08:01;;;;;;;446.40;240.83;;;;;;;;;;4921199;28;20465;-46
2023/01/27 13:10:27;;;;;;;460.93;250.67;;;;;;;;;;4939684;28;20300;-46
2023/01/27 13:12:55;;;;;;;462.83;244.73;;;;;;;;;;4933420;28;20245;-46
2023/01/27 13:15:22;;;;;;;505.10;260.47;;;;;;;;;;4945289;28;20223;-46
2023/01/27 13:17:52;;;;;;;443.40;243.27;;;;;;;;;;4937112;28;20214;-46
2023/01/27 13:20:24;;;;;;;467.17;249.10;;;;;;;;;;4938771;28;20201;-46
2023/01/27 13:23:11;;;;;;;509.67;273.93;;;;;;;;;;4945275;28;20221;-47
2023/01/27 13:25:53;;;;;;;544.07;282.17;;;;;;;;;;4935759;28;20214;-47
2023/01/27 13:28:27;;;;;;;526.77;283.37;;;;;;;;;;4942739;28;21006;-47
2023/01/27 13:30:56;;;;;;;518.50;261.47;;;;;;;;;;4931951;28;20761;-47
2023/01/27 13:33:39;;;;;;;529.57;271.77;;;;;;;;;;4937942;28;20809;-47
2023/01/27 13:36:07;;;;;;;472.80;253.23;;;;;;;;;;4941509;28;20222;-47
2023/01/27 13:38:54;;;;;;;480.67;258.07;;;;;;;;;;4935987;28;20254;-47
2023/01/27 13:41:25;;;;;;;471.83;244.30;;;;;;;;;;4952877;28;20735;-47
2023/01/27 13:43:55;;;;;;;482.20;263.90;;;;;;;;;;4938936;28;20291;-47
2023/01/27 13:46:23;;;;;;;454.13;238.77;;;;;;;;;;4922084;28;20302;-47
2023/01/27 13:49:13;;;;;;;501.73;266.47;;;;;;;;;;4941492;28;20229;-47
2023/01/27 13:51:39;;;;;;;375.60;198.90;;;;;;;;;;4935895;28;20230;-47
2023/01/27 13:54:06;;;;;;;484.17;259.33;;;;;;;;;;4937748;28;20221;-48
2023/01/27 13:56:48;;;;;;;489.07;269.50;;;;;;;;;;4947836;28;20202;-47
2023/01/27 13:59:18;;;;;;;431.67;230.57;;;;;;;;;;4943576;28;20226;-47
2023/01/27 14:02:09;;;;;;;474.27;247.43;;;;;;;;;;4935375;28;20238;-47
2023/01/27 14:05:01;;;;;;;446.60;239.67;;;;;;;;;;4941256;28;20214;-48
2023/01/27 14:07:43;;;;;;;501.23;259.93;;;;;;;;;;4923842;28;20323;-48
2023/01/27 14:10:26;;;;;;;517.90;263.43;;;;;;;;;;4943853;28;20226;-47
2023/01/27 14:13:22;;;;;;;550.13;280.57;;;;;;;;;;4936015;28;20976;-47
2023/01/27 14:15:54;;;;;;;517.33;264.53;;;;;;;;;;4940832;28;20244;-47
2023/01/27 14:18:34;;;;;;;470.57;239.47;;;;;;;;;;4931797;28;20245;-47
2023/01/27 14:21:11;;;;;;;509.73;270.07;;;;;;;;;;4933716;28;20308;-47
2023/01/27 14:24:14;;;;;;;499.37;277.63;;;;;;;;;;4949404;28;20228;-47
2023/01/27 14:26:59;;;;;;;513.97;267.50;;;;;;;;;;4957765;28;20288;-47
2023/01/27 14:29:32;;;;;;;458.53;247.90;;;;;;;;;;4929154;28;20225;-47
2023/01/27 14:32:17;;;;;;;491.37;266.70;;;;;;;;;;4911351;28;21781;-47
2023/01/27 14:35:04;;;;;;;541.57;279.73;;;;;;;;;;4932731;28;20260;-47